createdAt,value
2019-04-10T00:00:56.249Z,0
2019-04-10T00:01:55.833Z,0
2019-04-10T00:02:56.007Z,0
2019-04-10T00:03:56.597Z,0
2019-04-10T00:04:55.981Z,0
2019-04-10T00:05:56.199Z,0
2019-04-10T00:07:06.920Z,0
2019-04-10T00:07:55.688Z,0
2019-04-10T00:08:57.022Z,0
2019-04-10T00:09:57.455Z,0
2019-04-10T00:10:56.262Z,0
2019-04-10T00:11:56.966Z,0
2019-04-10T00:12:54.476Z,0
2019-04-10T00:13:56.199Z,0
2019-04-10T00:14:55.286Z,0
2019-04-10T00:15:56.978Z,0
2019-04-10T00:16:56.950Z,0
2019-04-10T00:17:56.070Z,0
2019-04-10T00:18:56.403Z,0
2019-04-10T00:19:54.691Z,0
2019-04-10T00:20:56.672Z,0
2019-04-10T00:21:55.949Z,0
2019-04-10T00:22:55.835Z,0
2019-04-10T00:23:56.312Z,0
2019-04-10T00:24:56.591Z,0
2019-04-10T00:25:55.702Z,0
2019-04-10T00:26:56.334Z,0
2019-04-10T00:27:55.498Z,0
2019-04-10T00:28:54.712Z,0
2019-04-10T00:29:57.138Z,0
2019-04-10T00:30:55.953Z,0
2019-04-10T00:31:56.621Z,0
2019-04-10T00:32:54.942Z,0
2019-04-10T00:33:56.880Z,0
2019-04-10T00:34:55.835Z,0
2019-04-10T00:35:55.837Z,0
2019-04-10T00:36:55.969Z,0
2019-04-10T00:37:55.372Z,0
2019-04-10T00:38:56.281Z,0
2019-04-10T00:39:55.592Z,0
2019-04-10T00:40:55.485Z,0
2019-04-10T00:41:55.297Z,0
2019-04-10T00:42:56.930Z,0
2019-04-10T00:43:57.419Z,0
2019-04-10T00:44:56.270Z,0
2019-04-10T00:45:56.307Z,0
2019-04-10T00:46:57.221Z,0
2019-04-10T00:47:55.877Z,0
2019-04-10T00:48:55.095Z,0
2019-04-10T00:49:56.094Z,0
2019-04-10T00:50:57.063Z,0
2019-04-10T00:51:55.523Z,0
2019-04-10T00:52:56.656Z,0
2019-04-10T00:53:54.614Z,0
2019-04-10T00:54:55.798Z,0
2019-04-10T00:55:54.974Z,0
2019-04-10T00:56:55.722Z,0
2019-04-10T00:57:56.093Z,0
2019-04-10T00:58:55.799Z,0
2019-04-10T00:59:55.316Z,0
2019-04-10T01:00:57.442Z,0
2019-04-10T01:01:56.232Z,0
2019-04-10T01:02:56.748Z,0
2019-04-10T01:03:58.633Z,0
2019-04-10T01:04:55.966Z,0
2019-04-10T01:05:56.079Z,0
2019-04-10T01:06:55.349Z,0
2019-04-10T01:07:56.488Z,0
2019-04-10T01:08:55.875Z,0
2019-04-10T01:09:55.854Z,0
2019-04-10T01:10:55.382Z,0
2019-04-10T01:11:55.213Z,0
2019-04-10T01:12:55.265Z,0
2019-04-10T01:13:57.032Z,0
2019-04-10T01:14:54.679Z,0
2019-04-10T01:15:55.917Z,0
2019-04-10T01:16:55.702Z,0
2019-04-10T01:17:57.196Z,0
2019-04-10T01:18:55.809Z,0
2019-04-10T01:19:54.965Z,0
2019-04-10T01:20:56.001Z,0
2019-04-10T01:21:57.196Z,0
2019-04-10T01:22:55.283Z,0
2019-04-10T01:23:57.044Z,0
2019-04-10T01:24:55.437Z,0
2019-04-10T01:25:57.075Z,0
2019-04-10T01:26:56.152Z,0
2019-04-10T01:27:56.007Z,0
2019-04-10T01:28:57.470Z,0
2019-04-10T01:29:56.484Z,0
2019-04-10T01:30:55.629Z,0
2019-04-10T01:31:55.986Z,0
2019-04-10T01:32:55.028Z,0
2019-04-10T01:33:56.963Z,0
2019-04-10T01:34:55.647Z,0
2019-04-10T01:35:56.768Z,0
2019-04-10T01:36:56.471Z,0
2019-04-10T01:38:11.367Z,0
2019-04-10T01:38:56.656Z,0
2019-04-10T01:39:56.881Z,0
2019-04-10T01:40:55.711Z,0
2019-04-10T01:41:56.355Z,0
2019-04-10T01:43:22.543Z,0
2019-04-10T01:43:55.697Z,0
2019-04-10T01:44:55.456Z,0
2019-04-10T01:45:56.616Z,0
2019-04-10T01:46:55.670Z,0
2019-04-10T01:47:55.971Z,0
2019-04-10T01:48:55.594Z,0
2019-04-10T01:49:58.222Z,0
2019-04-10T01:50:55.681Z,0
2019-04-10T01:51:55.354Z,0
2019-04-10T01:52:55.756Z,0
2019-04-10T01:53:56.834Z,0
2019-04-10T01:54:56.324Z,0
2019-04-10T01:55:55.651Z,0
2019-04-10T01:56:55.711Z,0
2019-04-10T01:57:56.720Z,0
2019-04-10T01:58:54.749Z,0
2019-04-10T01:59:56.396Z,0
2019-04-10T02:00:56.540Z,0
2019-04-10T02:01:55.049Z,0
2019-04-10T02:02:56.284Z,0
2019-04-10T02:03:54.793Z,0
2019-04-10T02:04:59.218Z,0
2019-04-10T02:05:54.846Z,0
2019-04-10T02:06:54.415Z,0
2019-04-10T02:08:21.497Z,0
2019-04-10T02:08:54.534Z,0
2019-04-10T02:09:56.353Z,0
2019-04-10T02:10:55.112Z,0
2019-04-10T02:11:56.792Z,0
2019-04-10T02:12:55.676Z,0
2019-04-10T02:13:54.632Z,0
2019-04-10T02:14:54.720Z,0
2019-04-10T02:15:56.638Z,0
2019-04-10T02:16:54.935Z,0
2019-04-10T02:17:55.367Z,0
2019-04-10T02:18:57.591Z,0
2019-04-10T02:19:55.399Z,0
2019-04-10T02:20:55.762Z,0
2019-04-10T02:21:54.444Z,0
2019-04-10T02:22:56.123Z,0
2019-04-10T02:23:55.049Z,0
2019-04-10T02:24:55.520Z,0
2019-04-10T02:25:54.968Z,0
2019-04-10T02:26:56.396Z,0
2019-04-10T02:27:56.864Z,0
2019-04-10T02:28:54.200Z,0
2019-04-10T02:29:55.785Z,0
2019-04-10T02:30:58.678Z,0
2019-04-10T02:32:00.010Z,0
2019-04-10T02:33:02.029Z,0
2019-04-10T02:33:57.737Z,0
2019-04-10T02:35:01.181Z,0
2019-04-10T02:35:56.983Z,0
2019-04-10T02:37:02.366Z,0
2019-04-10T02:38:35.403Z,0
2019-04-10T02:39:48.254Z,0
2019-04-10T02:40:13.133Z,0
2019-04-10T02:41:06.470Z,0
2019-04-10T02:42:06.089Z,0
2019-04-10T02:43:03.429Z,0
2019-04-10T02:44:03.086Z,0
2019-04-10T02:45:05.945Z,0
2019-04-10T02:46:06.825Z,0
2019-04-10T02:47:07.173Z,0
2019-04-10T02:48:06.406Z,0
2019-04-10T02:49:08.098Z,0
2019-04-10T02:50:05.993Z,0
2019-04-10T02:51:05.446Z,0
2019-04-10T02:52:04.059Z,0
2019-04-10T02:53:07.542Z,0
2019-04-10T02:54:09.154Z,0
2019-04-10T02:55:05.987Z,0
2019-04-10T02:56:07.106Z,0
2019-04-10T02:57:05.337Z,0
2019-04-10T02:58:06.583Z,0
2019-04-10T02:59:02.786Z,0
2019-04-10T03:00:08.433Z,0
2019-04-10T03:01:04.906Z,0
2019-04-10T03:02:08.312Z,0
2019-04-10T03:03:07.928Z,0
2019-04-10T03:04:05.775Z,0
2019-04-10T03:05:04.559Z,0
2019-04-10T03:06:02.586Z,0
2019-04-10T03:07:07.561Z,0
2019-04-10T03:08:08.855Z,0
2019-04-10T03:10:20.003Z,0
2019-04-10T03:11:10.517Z,0
2019-04-10T03:11:41.788Z,0
2019-04-10T03:12:39.340Z,0
2019-04-10T03:13:40.257Z,0
2019-04-10T03:14:39.302Z,0
2019-04-10T03:15:39.180Z,0
2019-04-10T03:16:34.054Z,0
2019-04-10T03:17:36.670Z,0
2019-04-10T03:18:35.431Z,0
2019-04-10T03:19:34.600Z,0
2019-04-10T03:20:34.641Z,0
2019-04-10T03:21:34.044Z,0
2019-04-10T03:22:37.034Z,0
2019-04-10T03:23:34.471Z,0
2019-04-10T03:24:34.584Z,0
2019-04-10T03:25:37.084Z,0
2019-04-10T03:26:36.090Z,0
2019-04-10T03:27:35.036Z,0
2019-04-10T03:28:35.836Z,0
2019-04-10T03:29:34.165Z,0
2019-04-10T03:30:41.221Z,0
2019-04-10T03:31:41.698Z,0
2019-04-10T03:33:04.413Z,0
2019-04-10T03:33:52.669Z,0
2019-04-10T03:34:49.012Z,0
2019-04-10T03:35:34.985Z,0
2019-04-10T03:36:34.348Z,0
2019-04-10T03:37:34.366Z,0
2019-04-10T03:38:47.204Z,0
2019-04-10T03:39:39.263Z,0
2019-04-10T03:40:34.057Z,0
2019-04-10T03:41:36.540Z,0
2019-04-10T03:42:35.800Z,0
2019-04-10T03:43:35.925Z,0
2019-04-10T03:44:35.212Z,0
2019-04-10T03:45:34.489Z,0
2019-04-10T03:46:38.218Z,0
2019-04-10T03:47:35.337Z,0
2019-04-10T03:48:34.238Z,0
2019-04-10T03:49:34.768Z,0
2019-04-10T03:50:34.454Z,0
2019-04-10T03:51:35.184Z,0
2019-04-10T03:52:34.401Z,0
2019-04-10T03:53:34.484Z,0
2019-04-10T03:54:34.356Z,0
2019-04-10T03:55:34.909Z,0
2019-04-10T03:56:34.523Z,0
2019-04-10T03:57:34.341Z,0
2019-04-10T03:58:34.252Z,0
2019-04-10T03:59:33.392Z,0
2019-04-10T04:00:34.988Z,0
2019-04-10T04:01:35.359Z,0
2019-04-10T04:02:34.516Z,0
2019-04-10T04:03:35.305Z,0
2019-04-10T04:04:33.991Z,0
2019-04-10T04:05:33.620Z,0
2019-04-10T04:06:33.848Z,0
2019-04-10T04:07:38.769Z,0
2019-04-10T04:08:35.334Z,0
2019-04-10T04:09:33.971Z,0
2019-04-10T04:10:34.939Z,0
2019-04-10T04:11:33.894Z,0
2019-04-10T04:12:34.910Z,0
2019-04-10T04:13:35.814Z,0
2019-04-10T04:14:33.272Z,0
2019-04-10T04:15:33.794Z,0
2019-04-10T04:16:33.810Z,0
2019-04-10T04:17:32.984Z,0
2019-04-10T04:18:35.396Z,0
2019-04-10T04:19:34.798Z,0
2019-04-10T04:20:33.762Z,0
2019-04-10T04:21:34.100Z,0
2019-04-10T04:22:35.587Z,0
2019-04-10T04:23:34.330Z,0
2019-04-10T04:24:36.132Z,0
2019-04-10T04:25:33.150Z,0
2019-04-10T04:26:37.085Z,0
2019-04-10T04:27:34.085Z,0
2019-04-10T04:28:34.280Z,0
2019-04-10T04:29:35.542Z,0
2019-04-10T04:30:34.532Z,0
2019-04-10T04:31:33.992Z,0
2019-04-10T04:32:34.011Z,0
2019-04-10T04:33:34.502Z,0
2019-04-10T04:34:34.729Z,0
2019-04-10T04:35:34.698Z,0
2019-04-10T04:36:33.899Z,0
2019-04-10T04:37:33.600Z,0
2019-04-10T04:38:34.637Z,0
2019-04-10T04:39:39.796Z,0
2019-04-10T04:40:35.725Z,0
2019-04-10T04:41:35.881Z,0
2019-04-10T04:42:33.755Z,0
2019-04-10T04:43:35.388Z,0
2019-04-10T04:44:33.965Z,0
2019-04-10T04:45:34.126Z,0
2019-04-10T04:46:33.051Z,0
2019-04-10T04:47:33.449Z,0
2019-04-10T04:48:34.327Z,0
2019-04-10T04:49:33.686Z,0
2019-04-10T04:50:34.318Z,0
2019-04-10T04:51:37.021Z,0
2019-04-10T04:52:33.298Z,0
2019-04-10T04:53:34.075Z,0
2019-04-10T04:54:33.220Z,0
2019-04-10T04:55:33.784Z,5
2019-04-10T04:56:33.920Z,5
2019-04-10T04:57:39.112Z,5
2019-04-10T04:58:33.961Z,5
2019-04-10T04:59:34.512Z,5
2019-04-10T05:00:34.370Z,5
2019-04-10T05:01:34.383Z,5
2019-04-10T05:02:34.786Z,5
2019-04-10T05:03:36.248Z,5
2019-04-10T05:04:37.692Z,5
2019-04-10T05:05:35.610Z,5
2019-04-10T05:06:34.989Z,5
2019-04-10T05:07:33.754Z,5
2019-04-10T05:08:34.386Z,5
2019-04-10T05:09:46.766Z,10
2019-04-10T05:10:34.180Z,10
2019-04-10T05:11:34.227Z,10
2019-04-10T05:12:34.001Z,10
2019-04-10T05:13:33.514Z,10
2019-04-10T05:14:34.021Z,10
2019-04-10T05:15:35.329Z,10
2019-04-10T05:16:35.434Z,10
2019-04-10T05:17:33.494Z,10
2019-04-10T05:18:35.142Z,10
2019-04-10T05:19:34.032Z,15
2019-04-10T05:20:54.605Z,15
2019-04-10T05:21:35.250Z,15
2019-04-10T05:22:34.090Z,15
2019-04-10T05:23:33.519Z,15
2019-04-10T05:24:34.535Z,15
2019-04-10T05:25:34.569Z,15
2019-04-10T05:26:34.267Z,15
2019-04-10T05:27:35.420Z,15
2019-04-10T05:28:36.192Z,15
2019-04-10T05:29:38.693Z,20
2019-04-10T05:30:34.094Z,20
2019-04-10T05:31:32.796Z,20
2019-04-10T05:32:33.318Z,20
2019-04-10T05:33:34.259Z,20
2019-04-10T05:34:33.629Z,25
2019-04-10T05:35:35.019Z,25
2019-04-10T05:36:34.124Z,25
2019-04-10T05:37:34.164Z,25
2019-04-10T05:38:34.206Z,25
2019-04-10T05:39:56.563Z,25
2019-04-10T05:40:34.603Z,30
2019-04-10T05:41:34.123Z,30
2019-04-10T05:42:33.830Z,30
2019-04-10T05:43:33.163Z,30
2019-04-10T05:44:34.114Z,35
2019-04-10T05:45:34.201Z,35
2019-04-10T05:46:35.444Z,35
2019-04-10T05:47:33.118Z,40
2019-04-10T05:48:35.768Z,40
2019-04-10T05:49:33.679Z,40
2019-04-10T05:50:32.721Z,40
2019-04-10T05:51:33.440Z,40
2019-04-10T05:52:33.618Z,40
2019-04-10T05:53:34.833Z,40
2019-04-10T05:54:34.007Z,40
2019-04-10T05:55:34.155Z,40
2019-04-10T05:56:34.064Z,40
2019-04-10T05:57:35.248Z,40
2019-04-10T05:58:34.140Z,45
2019-04-10T05:59:34.175Z,45
2019-04-10T06:00:34.826Z,45
2019-04-10T06:01:50.979Z,45
2019-04-10T06:02:32.657Z,45
2019-04-10T06:03:35.331Z,45
2019-04-10T06:04:33.958Z,45
2019-04-10T06:05:34.698Z,45
2019-04-10T06:06:34.716Z,45
2019-04-10T06:07:32.942Z,45
2019-04-10T06:08:33.624Z,45
2019-04-10T06:09:33.599Z,45
2019-04-10T06:10:34.668Z,40
2019-04-10T06:11:35.492Z,40
2019-04-10T06:12:34.154Z,40
2019-04-10T06:13:33.082Z,40
2019-04-10T06:14:35.075Z,40
2019-04-10T06:15:33.491Z,40
2019-04-10T06:16:33.032Z,40
2019-04-10T06:17:34.974Z,35
2019-04-10T06:18:35.157Z,35
2019-04-10T06:19:37.425Z,35
2019-04-10T06:20:34.037Z,35
2019-04-10T06:21:36.218Z,30
2019-04-10T06:22:34.684Z,30
2019-04-10T06:23:34.040Z,35
2019-04-10T06:24:36.100Z,35
2019-04-10T06:25:43.299Z,35
2019-04-10T06:26:35.465Z,40
2019-04-10T06:27:33.271Z,40
2019-04-10T06:28:40.170Z,40
2019-04-10T06:29:35.020Z,40
2019-04-10T06:30:34.160Z,45
2019-04-10T06:31:33.312Z,45
2019-04-10T06:32:34.591Z,45
2019-04-10T06:33:36.618Z,45
2019-04-10T06:34:32.857Z,45
2019-04-10T06:35:35.583Z,45
2019-04-10T06:36:34.034Z,45
2019-04-10T06:37:34.326Z,45
2019-04-10T06:38:33.234Z,50
2019-04-10T06:39:35.459Z,55
2019-04-10T06:40:37.759Z,60
2019-04-10T06:41:34.761Z,65
2019-04-10T06:42:50.616Z,70
2019-04-10T06:43:33.589Z,75
2019-04-10T06:44:32.842Z,75
2019-04-10T06:45:34.031Z,80
2019-04-10T06:46:37.529Z,80
2019-04-10T06:47:34.058Z,85
2019-04-10T06:48:34.097Z,85
2019-04-10T06:49:34.078Z,85
2019-04-10T06:50:35.299Z,85
2019-04-10T06:51:33.405Z,85
2019-04-10T06:52:35.178Z,85
2019-04-10T06:53:33.761Z,90
2019-04-10T06:54:33.973Z,90
2019-04-10T06:55:33.248Z,90
2019-04-10T06:56:33.934Z,90
2019-04-10T06:57:44.919Z,90
2019-04-10T06:58:34.308Z,90
2019-04-10T06:59:33.047Z,90
2019-04-10T07:00:33.161Z,90
2019-04-10T07:02:12.668Z,90
2019-04-10T07:02:42.226Z,90
2019-04-10T07:04:10.068Z,90
2019-04-10T07:04:58.244Z,90
2019-04-10T07:06:18.947Z,90
2019-04-10T07:07:20.233Z,90
2019-04-10T07:08:15.981Z,90
2019-04-10T07:08:34.900Z,90
2019-04-10T07:09:38.212Z,90
2019-04-10T07:11:13.086Z,85
2019-04-10T07:11:39.789Z,85
2019-04-10T07:12:39.947Z,85
2019-04-10T07:13:36.764Z,85
2019-04-10T07:14:38.394Z,85
2019-04-10T07:15:34.235Z,85
2019-04-10T07:16:40.537Z,80
2019-04-10T07:17:41.008Z,80
2019-04-10T07:18:35.824Z,80
2019-04-10T07:19:34.798Z,80
2019-04-10T07:20:34.338Z,80
2019-04-10T07:21:41.079Z,80
2019-04-10T07:22:33.542Z,80
2019-04-10T07:23:41.345Z,80
2019-04-10T07:24:41.042Z,75
2019-04-10T07:25:35.349Z,75
2019-04-10T07:26:53.423Z,75
2019-04-10T07:27:41.801Z,75
2019-04-10T07:28:37.624Z,75
2019-04-10T07:29:38.675Z,75
2019-04-10T07:30:36.347Z,75
2019-04-10T07:31:40.418Z,75
2019-04-10T07:32:36.041Z,75
2019-04-10T07:33:34.874Z,75
2019-04-10T07:34:36.848Z,70
2019-04-10T07:35:42.344Z,70
2019-04-10T07:36:33.485Z,70
2019-04-10T07:37:34.407Z,70
2019-04-10T07:38:33.337Z,70
2019-04-10T07:39:39.918Z,70
2019-04-10T07:40:36.924Z,70
2019-04-10T07:41:37.617Z,70
2019-04-10T07:42:48.717Z,70
2019-04-10T07:43:38.800Z,70
2019-04-10T07:44:32.686Z,70
2019-04-10T07:45:37.923Z,75
2019-04-10T07:46:34.636Z,75
2019-04-10T07:47:34.043Z,75
2019-04-10T07:48:32.199Z,75
2019-04-10T07:49:42.001Z,75
2019-04-10T07:50:33.264Z,75
2019-04-10T07:51:32.562Z,75
2019-04-10T07:52:35.436Z,75
2019-04-10T07:53:33.903Z,75
2019-04-10T07:54:34.940Z,75
2019-04-10T07:55:33.355Z,75
2019-04-10T07:56:33.428Z,80
2019-04-10T07:57:33.290Z,80
2019-04-10T07:58:34.150Z,80
2019-04-10T07:59:33.455Z,80
2019-04-10T08:00:36.927Z,80
2019-04-10T08:01:33.950Z,80
2019-04-10T08:02:32.184Z,85
2019-04-10T08:03:33.367Z,85
2019-04-10T08:04:31.829Z,90
2019-04-10T08:05:33.254Z,90
2019-04-10T08:06:33.152Z,90
2019-04-10T08:07:45.525Z,95
2019-04-10T08:08:33.976Z,95
2019-04-10T08:09:32.057Z,95
2019-04-10T08:10:34.732Z,95
2019-04-10T08:11:34.115Z,95
2019-04-10T08:12:56.562Z,100
2019-04-10T08:13:33.217Z,100
2019-04-10T08:14:35.690Z,105
2019-04-10T08:15:32.143Z,105
2019-04-10T08:16:33.185Z,105
2019-04-10T08:17:34.463Z,110
2019-04-10T08:18:32.460Z,110
2019-04-10T08:19:37.379Z,115
2019-04-10T08:20:33.369Z,115
2019-04-10T08:21:34.051Z,120
2019-04-10T08:22:33.628Z,120
2019-04-10T08:23:33.738Z,125
2019-04-10T08:24:33.056Z,125
2019-04-10T08:25:33.548Z,125
2019-04-10T08:26:32.869Z,130
2019-04-10T08:27:34.033Z,130
2019-04-10T08:28:37.567Z,135
2019-04-10T08:29:34.292Z,135
2019-04-10T08:30:34.500Z,140
2019-04-10T08:31:33.284Z,140
2019-04-10T08:32:40.372Z,140
2019-04-10T08:33:32.665Z,145
2019-04-10T08:34:33.893Z,140
2019-04-10T08:35:32.052Z,145
2019-04-10T08:36:33.978Z,145
2019-04-10T08:37:34.984Z,150
2019-04-10T08:38:34.579Z,150
2019-04-10T08:39:55.105Z,145
2019-04-10T08:40:32.542Z,145
2019-04-10T08:41:35.228Z,150
2019-04-10T08:42:33.229Z,150
2019-04-10T08:43:37.478Z,155
2019-04-10T08:44:32.342Z,155
2019-04-10T08:45:55.065Z,155
2019-04-10T08:46:33.617Z,155
2019-04-10T08:47:33.425Z,160
2019-04-10T08:48:39.070Z,170
2019-04-10T08:49:33.081Z,170
2019-04-10T08:50:34.319Z,175
2019-04-10T08:51:33.483Z,175
2019-04-10T08:52:34.593Z,180
2019-04-10T08:53:36.488Z,185
2019-04-10T08:54:34.591Z,190
2019-04-10T08:55:34.376Z,190
2019-04-10T08:56:32.773Z,195
2019-04-10T08:57:34.077Z,200
2019-04-10T08:58:33.178Z,200
2019-04-10T08:59:34.083Z,205
2019-04-10T09:00:34.726Z,210
2019-04-10T09:01:31.800Z,210
2019-04-10T09:02:33.852Z,215
2019-04-10T09:03:32.723Z,215
2019-04-10T09:04:33.693Z,215
2019-04-10T09:05:33.328Z,220
2019-04-10T09:06:32.142Z,225
2019-04-10T09:07:32.934Z,225
2019-04-10T09:08:31.561Z,225
2019-04-10T09:09:33.910Z,225
2019-04-10T09:10:32.971Z,225
2019-04-10T09:11:40.946Z,225
2019-04-10T09:12:34.136Z,225
2019-04-10T09:13:33.309Z,225
2019-04-10T09:14:35.365Z,230
2019-04-10T09:15:34.009Z,230
2019-04-10T09:16:34.265Z,230
2019-04-10T09:17:33.745Z,230
2019-04-10T09:18:33.498Z,230
2019-04-10T09:19:33.702Z,230
2019-04-10T09:20:33.546Z,235
2019-04-10T09:21:34.604Z,240
2019-04-10T09:23:13.121Z,245
2019-04-10T09:24:00.679Z,250
2019-04-10T09:24:32.291Z,250
2019-04-10T09:25:33.220Z,260
2019-04-10T09:26:32.851Z,255
2019-04-10T09:27:31.772Z,255
2019-04-10T09:28:32.666Z,250
2019-04-10T09:29:36.095Z,250
2019-04-10T09:30:31.768Z,245
2019-04-10T09:31:34.230Z,250
2019-04-10T09:32:33.380Z,250
2019-04-10T09:33:39.680Z,250
2019-04-10T09:34:33.925Z,245
2019-04-10T09:35:33.341Z,240
2019-04-10T09:36:31.925Z,240
2019-04-10T09:37:34.766Z,235
2019-04-10T09:38:33.276Z,235
2019-04-10T09:39:33.661Z,240
2019-04-10T09:40:32.487Z,245
2019-04-10T09:41:32.804Z,245
2019-04-10T09:42:35.349Z,240
2019-04-10T09:43:32.258Z,245
2019-04-10T09:44:32.343Z,250
2019-04-10T09:45:35.634Z,245
2019-04-10T09:46:31.744Z,245
2019-04-10T09:47:32.794Z,245
2019-04-10T09:48:32.152Z,245
2019-04-10T09:49:51.803Z,250
2019-04-10T09:50:33.528Z,255
2019-04-10T09:51:34.257Z,255
2019-04-10T09:52:35.475Z,255
2019-04-10T09:53:32.950Z,255
2019-04-10T09:54:34.803Z,260
2019-04-10T09:55:32.034Z,265
2019-04-10T09:56:32.660Z,265
2019-04-10T09:57:32.197Z,270
2019-04-10T09:58:34.262Z,280
2019-04-10T09:59:49.103Z,285
2019-04-10T10:00:32.435Z,290
2019-04-10T10:01:33.789Z,290
2019-04-10T10:02:32.269Z,290
2019-04-10T10:03:32.762Z,290
2019-04-10T10:04:33.970Z,280
2019-04-10T10:05:32.892Z,275
2019-04-10T10:06:45.281Z,265
2019-04-10T10:07:33.471Z,255
2019-04-10T10:08:31.736Z,250
2019-04-10T10:09:37.270Z,240
2019-04-10T10:10:34.476Z,230
2019-04-10T10:11:34.066Z,215
2019-04-10T10:12:34.257Z,195
2019-04-10T10:13:34.028Z,190
2019-04-10T10:14:38.275Z,185
2019-04-10T10:15:32.190Z,195
2019-04-10T10:16:36.172Z,205
2019-04-10T10:17:31.433Z,215
2019-04-10T10:18:33.191Z,215
2019-04-10T10:19:34.139Z,220
2019-04-10T10:20:35.628Z,220
2019-04-10T10:21:32.828Z,215
2019-04-10T10:22:34.267Z,215
2019-04-10T10:23:32.509Z,215
2019-04-10T10:24:32.900Z,220
2019-04-10T10:25:33.870Z,220
2019-04-10T10:26:34.283Z,220
2019-04-10T10:27:34.671Z,225
2019-04-10T10:28:33.181Z,225
2019-04-10T10:29:33.520Z,225
2019-04-10T10:30:33.872Z,230
2019-04-10T10:31:33.280Z,230
2019-04-10T10:32:32.767Z,235
2019-04-10T10:33:34.004Z,235
2019-04-10T10:34:32.972Z,230
2019-04-10T10:35:32.189Z,225
2019-04-10T10:36:55.891Z,215
2019-04-10T10:37:32.865Z,210
2019-04-10T10:38:32.432Z,205
2019-04-10T10:39:34.814Z,210
2019-04-10T10:40:33.838Z,210
2019-04-10T10:41:32.285Z,215
2019-04-10T10:42:33.755Z,215
2019-04-10T10:43:34.611Z,225
2019-04-10T10:44:34.089Z,230
2019-04-10T10:45:34.490Z,230
2019-04-10T10:46:31.887Z,230
2019-04-10T10:47:35.871Z,235
2019-04-10T10:48:32.211Z,235
2019-04-10T10:49:33.006Z,230
2019-04-10T10:50:33.543Z,230
2019-04-10T10:51:33.253Z,230
2019-04-10T10:52:33.508Z,235
2019-04-10T10:53:33.008Z,245
2019-04-10T10:54:34.984Z,240
2019-04-10T10:55:32.331Z,230
2019-04-10T10:56:34.085Z,225
2019-04-10T10:57:33.542Z,225
2019-04-10T10:58:34.256Z,220
2019-04-10T10:59:32.153Z,225
2019-04-10T11:00:33.787Z,230
2019-04-10T11:01:32.373Z,250
2019-04-10T11:02:33.576Z,260
2019-04-10T11:03:32.390Z,265
2019-04-10T11:04:32.330Z,265
2019-04-10T11:05:37.449Z,280
2019-04-10T11:06:33.069Z,290
2019-04-10T11:07:33.625Z,275
2019-04-10T11:08:35.272Z,270
2019-04-10T11:09:34.018Z,265
2019-04-10T11:10:37.056Z,270
2019-04-10T11:11:33.227Z,280
2019-04-10T11:12:34.106Z,290
2019-04-10T11:13:33.237Z,290
2019-04-10T11:14:35.425Z,300
2019-04-10T11:15:34.356Z,315
2019-04-10T11:16:33.888Z,320
2019-04-10T11:17:34.253Z,320
2019-04-10T11:18:33.249Z,320
2019-04-10T11:19:35.209Z,325
2019-04-10T11:20:36.278Z,330
2019-04-10T11:21:32.551Z,325
2019-04-10T11:22:37.626Z,330
2019-04-10T11:23:33.736Z,330
2019-04-10T11:24:35.575Z,330
2019-04-10T11:25:35.811Z,325
2019-04-10T11:26:36.204Z,320
2019-04-10T11:27:34.358Z,320
2019-04-10T11:28:41.903Z,310
2019-04-10T11:29:34.945Z,310
2019-04-10T11:30:34.685Z,305
2019-04-10T11:33:34.697Z,295
2019-04-10T11:33:55.340Z,295
2019-04-10T11:34:46.616Z,300
2019-04-10T11:35:45.752Z,295
2019-04-10T11:37:11.033Z,295
2019-04-10T11:39:58.578Z,285
2019-04-10T11:42:14.729Z,295
2019-04-10T11:42:29.051Z,295
2019-04-10T11:43:30.126Z,305
2019-04-10T11:44:33.103Z,305
2019-04-10T11:47:32.590Z,300
2019-04-10T11:47:51.171Z,300
2019-04-10T11:50:18.266Z,300
2019-04-10T11:51:13.144Z,300
2019-04-10T11:53:32.481Z,305
2019-04-10T11:54:40.926Z,300
2019-04-10T11:55:50.007Z,300
2019-04-10T11:56:29.856Z,295
2019-04-10T11:58:57.007Z,280
2019-04-10T11:59:51.730Z,275
2019-04-10T12:03:00.763Z,270
2019-04-10T12:03:18.153Z,270
2019-04-10T12:04:23.218Z,270
2019-04-10T12:05:31.644Z,270
2019-04-10T12:11:25.700Z,280
2019-04-10T12:12:13.857Z,275
2019-04-10T12:13:15.465Z,270
2019-04-10T12:14:15.348Z,265
2019-04-10T12:15:12.781Z,265
2019-04-10T12:16:14.988Z,260
2019-04-10T12:17:14.444Z,255
2019-04-10T12:18:14.098Z,255
2019-04-10T12:19:15.134Z,255
2019-04-10T12:20:14.100Z,255
2019-04-10T12:21:14.239Z,255
2019-04-10T12:22:14.351Z,255
2019-04-10T12:23:16.670Z,250
2019-04-10T12:24:14.116Z,245
2019-04-10T12:25:14.561Z,235
2019-04-10T12:26:14.036Z,235
2019-04-10T12:27:14.979Z,230
2019-04-10T12:28:14.118Z,230
2019-04-10T12:29:14.083Z,235
2019-04-10T12:30:13.613Z,235
2019-04-10T12:31:12.773Z,230
2019-04-10T12:32:14.422Z,235
2019-04-10T12:33:14.427Z,225
2019-04-10T12:34:14.946Z,225
2019-04-10T12:35:15.038Z,230
2019-04-10T12:36:15.177Z,225
2019-04-10T12:37:13.672Z,225
2019-04-10T12:38:20.269Z,220
2019-04-10T12:39:14.463Z,220
2019-04-10T12:40:14.356Z,215
2019-04-10T12:41:13.771Z,210
2019-04-10T12:42:14.599Z,205
2019-04-10T12:43:15.378Z,200
2019-04-10T12:44:14.343Z,200
2019-04-10T12:45:15.907Z,200
2019-04-10T12:46:15.217Z,200
2019-04-10T12:47:13.405Z,200
2019-04-10T12:48:14.482Z,205
2019-04-10T12:49:15.051Z,205
2019-04-10T12:50:12.755Z,210
2019-04-10T12:51:14.205Z,210
2019-04-10T12:52:12.906Z,215
2019-04-10T12:53:14.249Z,215
2019-04-10T12:54:14.862Z,220
2019-04-10T12:55:14.655Z,210
2019-04-10T12:56:15.730Z,205
2019-04-10T12:57:13.213Z,205
2019-04-10T12:58:25.208Z,200
2019-04-10T12:59:13.822Z,200
2019-04-10T13:00:14.522Z,195
2019-04-10T13:01:14.548Z,190
2019-04-10T13:02:18.408Z,190
2019-04-10T13:03:17.051Z,195
2019-04-10T13:04:14.112Z,195
2019-04-10T13:05:16.704Z,200
2019-04-10T13:06:15.517Z,205
2019-04-10T13:07:14.069Z,205
2019-04-10T13:09:10.511Z,215
2019-04-10T13:09:26.157Z,205
2019-04-10T13:10:23.240Z,205
2019-04-10T13:11:22.620Z,205
2019-04-10T13:12:23.263Z,200
2019-04-10T13:13:24.434Z,200
2019-04-10T13:14:22.207Z,205
2019-04-10T13:15:23.362Z,210
2019-04-10T13:16:23.732Z,215
2019-04-10T13:17:22.801Z,220
2019-04-10T13:18:22.852Z,225
2019-04-10T13:19:23.445Z,230
2019-04-10T13:20:23.976Z,230
2019-04-10T13:21:22.619Z,235
2019-04-10T13:22:22.460Z,240
2019-04-10T13:23:25.251Z,245
2019-04-10T13:24:23.637Z,255
2019-04-10T13:25:24.323Z,250
2019-04-10T13:26:23.890Z,250
2019-04-10T13:27:23.218Z,255
2019-04-10T13:28:22.078Z,255
2019-04-10T13:29:24.463Z,250
2019-04-10T13:30:24.045Z,240
2019-04-10T13:31:23.448Z,235
2019-04-10T13:32:25.805Z,230
2019-04-10T13:33:21.122Z,230
2019-04-10T13:34:24.864Z,225
2019-04-10T13:35:24.368Z,220
2019-04-10T13:36:22.378Z,220
2019-04-10T13:37:22.871Z,215
2019-04-10T13:38:42.203Z,215
2019-04-10T13:39:25.263Z,220
2019-04-10T13:40:22.233Z,225
2019-04-10T13:41:24.067Z,230
2019-04-10T13:42:23.176Z,235
2019-04-10T13:43:22.757Z,235
2019-04-10T13:44:22.387Z,235
2019-04-10T13:45:22.159Z,225
2019-04-10T13:46:23.291Z,220
2019-04-10T13:47:22.456Z,220
2019-04-10T13:48:23.222Z,210
2019-04-10T13:49:23.851Z,205
2019-04-10T13:50:22.191Z,200
2019-04-10T13:51:23.362Z,195
2019-04-10T13:52:23.538Z,190
2019-04-10T13:53:22.470Z,185
2019-04-10T13:54:26.406Z,180
2019-04-10T13:55:21.822Z,180
2019-04-10T13:56:21.913Z,180
2019-04-10T13:57:22.852Z,180
2019-04-10T13:58:23.176Z,180
2019-04-10T13:59:25.081Z,185
2019-04-10T14:00:22.162Z,185
2019-04-10T14:01:23.062Z,190
2019-04-10T14:02:22.053Z,195
2019-04-10T14:03:22.985Z,200
2019-04-10T14:04:21.336Z,200
2019-04-10T14:05:24.012Z,200
2019-04-10T14:06:23.795Z,205
2019-04-10T14:07:22.500Z,205
2019-04-10T14:08:58.311Z,210
2019-04-10T14:09:54.941Z,215
2019-04-10T14:10:22.844Z,215
2019-04-10T14:11:24.888Z,215
2019-04-10T14:12:23.247Z,220
2019-04-10T14:13:24.345Z,220
2019-04-10T14:14:24.319Z,220
2019-04-10T14:15:22.431Z,225
2019-04-10T14:16:22.697Z,220
2019-04-10T14:17:23.650Z,220
2019-04-10T14:18:22.015Z,220
2019-04-10T14:19:22.199Z,215
2019-04-10T14:20:23.635Z,210
2019-04-10T14:21:26.777Z,205
2019-04-10T14:22:24.177Z,200
2019-04-10T14:23:22.697Z,200
2019-04-10T14:24:22.669Z,190
2019-04-10T14:25:23.311Z,185
2019-04-10T14:26:24.437Z,180
2019-04-10T14:27:24.473Z,175
2019-04-10T14:28:25.658Z,170
2019-04-10T14:29:23.010Z,170
2019-04-10T14:30:23.578Z,165